Time;durP1;ratioP1;P1;durP2;ratioP2;P2;SDS_P1;SDS_P2;PMS_P1;PMS_P2;Temp;Humidity;BMP_temperature;BMP_pressure;BME280_temperature;BME280_humidity;BME280_pressure;Samples;Min_cycle;Max_cycle;Signal;HPM_P1;HPM_P2
2022/01/11 00:00:06;;;;;;;45.77;15.07;;;;;;;;;;5096321;28;20455;-83
2022/01/11 00:02:48;;;;;;;41.40;14.87;;;;;;;;;;5102546;28;20531;-84
2022/01/11 00:05:22;;;;;;;42.30;15.67;;;;;;;;;;5108382;28;20448;-85
2022/01/11 00:07:50;;;;;;;37.67;14.53;;;;;;;;;;5105319;28;21047;-84
2022/01/11 00:10:26;;;;;;;36.57;14.73;;;;;;;;;;5095657;28;20472;-84
2022/01/11 00:12:54;;;;;;;37.27;14.93;;;;;;;;;;5101883;28;20473;-85
2022/01/11 00:15:21;;;;;;;42.30;15.60;;;;;;;;;;5100343;28;20459;-83
2022/01/11 00:17:50;;;;;;;50.10;16.57;;;;;;;;;;5102049;28;20436;-83
2022/01/11 00:20:20;;;;;;;42.03;15.57;;;;;;;;;;5092508;28;20493;-82
2022/01/11 00:24:27;;;;;;;42.93;15.57;;;;;;;;;;5095223;28;20483;-84
2022/01/11 00:25:45;;;;;;;40.23;15.27;;;;;;;;;;5092480;28;20498;-84
2022/01/11 00:28:13;;;;;;;38.13;15.03;;;;;;;;;;5097996;28;20440;-83
2022/01/11 00:30:42;;;;;;;38.37;15.47;;;;;;;;;;5098946;28;20515;-84
2022/01/11 00:33:14;;;;;;;40.23;14.57;;;;;;;;;;5097835;28;20531;-83
2022/01/11 00:35:43;;;;;;;36.70;14.20;;;;;;;;;;5100786;28;20448;-83
2022/01/11 00:38:15;;;;;;;40.17;13.67;;;;;;;;;;5090681;28;20448;-85
2022/01/11 00:40:43;;;;;;;39.83;14.70;;;;;;;;;;5097644;28;20443;-84
2022/01/11 00:43:10;;;;;;;36.03;15.20;;;;;;;;;;5098999;28;20841;-84
2022/01/11 00:45:37;;;;;;;41.50;15.83;;;;;;;;;;5095774;28;20475;-84
2022/01/11 00:48:05;;;;;;;40.83;15.93;;;;;;;;;;5096271;28;20484;-84
2022/01/11 00:50:36;;;;;;;40.73;14.57;;;;;;;;;;5091114;28;20567;-83
2022/01/11 00:53:03;;;;;;;37.30;14.33;;;;;;;;;;5098013;28;20475;-83
2022/01/11 00:55:30;;;;;;;43.20;14.37;;;;;;;;;;5105458;28;20447;-82
2022/01/11 00:57:58;;;;;;;38.20;14.43;;;;;;;;;;5115458;28;20477;-82
2022/01/11 01:00:25;;;;;;;41.37;14.70;;;;;;;;;;5115631;28;20482;-82
2022/01/11 01:02:52;;;;;;;35.30;14.03;;;;;;;;;;5104209;28;20471;-83
2022/01/11 01:05:21;;;;;;;39.20;12.57;;;;;;;;;;5103150;28;20537;-84
2022/01/11 01:07:50;;;;;;;33.23;13.13;;;;;;;;;;5106567;28;20455;-84
2022/01/11 01:10:25;;;;;;;35.47;12.47;;;;;;;;;;5104857;28;20495;-84
2022/01/11 01:12:53;;;;;;;28.40;11.97;;;;;;;;;;5104205;28;20542;-84
2022/01/11 01:15:20;;;;;;;33.17;13.47;;;;;;;;;;5103451;28;20458;-84
2022/01/11 01:17:47;;;;;;;39.03;13.93;;;;;;;;;;5103514;28;20463;-85
2022/01/11 01:20:14;;;;;;;35.97;12.97;;;;;;;;;;5105347;28;20974;-84
2022/01/11 01:22:42;;;;;;;31.77;12.70;;;;;;;;;;5102740;28;20507;-84
2022/01/11 01:25:11;;;;;;;28.60;12.30;;;;;;;;;;5104217;28;20447;-83
2022/01/11 01:27:38;;;;;;;35.23;13.20;;;;;;;;;;5103335;28;20479;-84
2022/01/11 01:30:07;;;;;;;39.33;12.73;;;;;;;;;;5100715;28;20518;-86
2022/01/11 01:32:34;;;;;;;42.10;14.30;;;;;;;;;;5101173;28;20579;-82
2022/01/11 01:35:04;;;;;;;32.50;12.80;;;;;;;;;;5101940;28;20447;-83
2022/01/11 01:37:32;;;;;;;34.63;13.43;;;;;;;;;;5101568;28;20448;-82
2022/01/11 01:39:59;;;;;;;40.13;12.93;;;;;;;;;;5098739;28;20902;-82
2022/01/11 01:42:30;;;;;;;33.83;13.13;;;;;;;;;;5094347;28;20535;-83
2022/01/11 01:45:00;;;;;;;34.10;12.17;;;;;;;;;;5091432;28;20449;-82
2022/01/11 01:47:27;;;;;;;29.77;11.53;;;;;;;;;;5091224;28;20475;-82
2022/01/11 01:49:54;;;;;;;33.30;12.33;;;;;;;;;;5086562;28;20498;-83
2022/01/11 01:52:21;;;;;;;28.67;11.00;;;;;;;;;;5086771;28;20477;-83
2022/01/11 01:54:49;;;;;;;31.83;11.37;;;;;;;;;;5090184;28;20994;-83
2022/01/11 01:57:16;;;;;;;35.93;12.30;;;;;;;;;;5088505;28;20502;-83
2022/01/11 01:59:45;;;;;;;33.10;12.10;;;;;;;;;;5088218;28;20452;-82
2022/01/11 02:02:13;;;;;;;33.83;10.67;;;;;;;;;;5086588;28;20572;-83
2022/01/11 02:04:41;;;;;;;27.87;11.07;;;;;;;;;;5089434;28;20938;-83
2022/01/11 02:07:08;;;;;;;32.80;11.13;;;;;;;;;;5088038;28;20452;-82
2022/01/11 02:09:35;;;;;;;30.67;10.23;;;;;;;;;;5089135;28;20487;-83
2022/01/11 02:12:02;;;;;;;36.67;11.33;;;;;;;;;;5088690;28;21066;-82
2022/01/11 02:14:30;;;;;;;28.10;11.27;;;;;;;;;;5086986;28;20526;-82
2022/01/11 02:17:00;;;;;;;25.80;9.97;;;;;;;;;;5087802;28;20593;-82
2022/01/11 02:19:27;;;;;;;30.27;10.53;;;;;;;;;;5089344;28;20456;-82
2022/01/11 02:21:56;;;;;;;24.73;10.13;;;;;;;;;;5088449;28;20472;-82
2022/01/11 02:24:23;;;;;;;26.13;10.60;;;;;;;;;;5089564;28;20527;-82
2022/01/11 02:26:50;;;;;;;28.90;10.10;;;;;;;;;;5090461;28;20555;-82
2022/01/11 02:29:18;;;;;;;24.90;9.33;;;;;;;;;;5088154;28;20468;-82
2022/01/11 02:31:46;;;;;;;27.93;10.03;;;;;;;;;;5088932;28;20544;-83
2022/01/11 02:34:13;;;;;;;28.03;10.37;;;;;;;;;;5086617;28;20978;-83
2022/01/11 02:36:40;;;;;;;30.07;9.10;;;;;;;;;;5098678;28;20469;-82
2022/01/11 02:39:09;;;;;;;28.67;9.20;;;;;;;;;;5103486;28;20436;-81
2022/01/11 02:41:36;;;;;;;21.33;8.53;;;;;;;;;;5101952;28;20536;-82
2022/01/11 02:44:04;;;;;;;22.70;9.37;;;;;;;;;;5083721;28;20440;-83
2022/01/11 02:46:31;;;;;;;28.93;9.40;;;;;;;;;;5086453;28;20455;-82
2022/01/11 02:48:58;;;;;;;25.90;8.87;;;;;;;;;;5085125;28;20444;-83
2022/01/11 02:51:27;;;;;;;21.57;8.43;;;;;;;;;;5086305;28;20502;-82
2022/01/11 02:53:57;;;;;;;25.10;10.17;;;;;;;;;;5085786;28;20483;-82
2022/01/11 02:56:26;;;;;;;27.27;9.60;;;;;;;;;;5084474;28;20466;-81
2022/01/11 02:58:53;;;;;;;23.17;8.40;;;;;;;;;;5089981;28;20561;-84
2022/01/11 03:01:20;;;;;;;23.07;8.03;;;;;;;;;;5099584;28;20468;-84
2022/01/11 03:03:48;;;;;;;22.97;9.27;;;;;;;;;;5103348;28;20551;-84
2022/01/11 03:06:15;;;;;;;25.40;7.70;;;;;;;;;;5098437;28;20437;-84
2022/01/11 03:08:44;;;;;;;26.23;8.43;;;;;;;;;;5099882;28;20480;-84
2022/01/11 03:11:11;;;;;;;21.33;7.97;;;;;;;;;;5105334;28;20539;-83
2022/01/11 03:13:41;;;;;;;22.07;8.13;;;;;;;;;;5102310;28;20495;-84
2022/01/11 03:16:09;;;;;;;25.93;8.03;;;;;;;;;;5098024;28;20463;-84
2022/01/11 03:18:36;;;;;;;22.67;7.50;;;;;;;;;;5101517;28;20456;-84
2022/01/11 03:21:05;;;;;;;20.70;7.50;;;;;;;;;;5095320;28;20460;-84
2022/01/11 03:23:32;;;;;;;22.57;8.07;;;;;;;;;;5101085;28;20443;-84
2022/01/11 03:26:02;;;;;;;23.60;7.90;;;;;;;;;;5099375;28;20490;-83
2022/01/11 03:28:29;;;;;;;22.50;7.60;;;;;;;;;;5097804;28;20447;-84
2022/01/11 03:30:59;;;;;;;18.27;6.97;;;;;;;;;;5096477;28;20487;-84
2022/01/11 03:33:26;;;;;;;18.93;6.93;;;;;;;;;;5097720;28;20554;-84
2022/01/11 03:35:53;;;;;;;20.53;7.43;;;;;;;;;;5097032;28;21025;-84
2022/01/11 03:38:22;;;;;;;18.23;7.40;;;;;;;;;;5099555;28;20451;-85
2022/01/11 03:40:50;;;;;;;20.03;7.33;;;;;;;;;;5098886;28;20477;-84
2022/01/11 03:43:21;;;;;;;20.40;7.20;;;;;;;;;;5095182;28;20486;-84
2022/01/11 03:45:49;;;;;;;22.57;7.23;;;;;;;;;;5094726;28;20528;-84
2022/01/11 03:48:24;;;;;;;21.07;6.73;;;;;;;;;;5098608;28;20551;-84
2022/01/11 03:50:54;;;;;;;27.87;7.27;;;;;;;;;;5096415;28;20482;-84
2022/01/11 03:53:26;;;;;;;18.23;5.83;;;;;;;;;;5093967;28;20455;-84
2022/01/11 03:58:35;;;;;;;17.77;6.37;;;;;;;;;;5080592;28;20488;-84
2022/01/11 04:01:02;;;;;;;24.80;6.13;;;;;;;;;;5095882;28;20436;-84
2022/01/11 04:03:30;;;;;;;19.87;6.60;;;;;;;;;;5093771;28;20544;-84
2022/01/11 04:05:58;;;;;;;16.60;5.97;;;;;;;;;;5092126;28;20538;-84
2022/01/11 04:08:25;;;;;;;16.63;5.40;;;;;;;;;;5095583;28;20566;-84
2022/01/11 04:10:52;;;;;;;20.83;7.20;;;;;;;;;;5094659;28;20477;-84
2022/01/11 04:13:20;;;;;;;15.53;6.00;;;;;;;;;;5093989;28;20524;-84
2022/01/11 04:15:47;;;;;;;25.37;6.30;;;;;;;;;;5097612;28;20456;-84
2022/01/11 04:18:14;;;;;;;16.17;6.07;;;;;;;;;;5097639;28;20467;-84
2022/01/11 04:20:43;;;;;;;17.97;7.07;;;;;;;;;;5096051;28;21062;-83
2022/01/11 04:23:17;;;;;;;23.53;7.20;;;;;;;;;;5094458;22;20488;-83
2022/01/11 04:25:46;;;;;;;21.63;6.63;;;;;;;;;;5068256;28;20455;-84
2022/01/11 04:28:16;;;;;;;15.77;6.13;;;;;;;;;;5069522;28;20510;-84
2022/01/11 04:30:44;;;;;;;15.30;6.33;;;;;;;;;;5074598;28;20452;-84
2022/01/11 04:33:14;;;;;;;18.17;5.87;;;;;;;;;;5073398;28;20574;-83
2022/01/11 04:35:48;;;;;;;16.33;6.33;;;;;;;;;;5079509;28;20598;-84
2022/01/11 04:38:41;;;;;;;15.17;5.80;;;;;;;;;;5076044;28;20448;-84
2022/01/11 04:41:13;;;;;;;19.30;6.33;;;;;;;;;;5054617;28;21230;-84
2022/01/11 04:43:42;;;;;;;17.33;6.07;;;;;;;;;;5075356;28;20539;-85
2022/01/11 04:48:59;;;;;;;16.60;6.63;;;;;;;;;;5072052;28;20459;-84
2022/01/11 04:51:33;;;;;;;17.97;5.83;;;;;;;;;;5073995;28;20539;-84
2022/01/11 04:54:00;;;;;;;18.73;5.80;;;;;;;;;;5075346;28;20471;-85
2022/01/11 04:56:35;;;;;;;16.67;5.50;;;;;;;;;;5079678;28;20480;-85
2022/01/11 04:59:02;;;;;;;13.80;5.33;;;;;;;;;;5082174;28;20444;-85
2022/01/11 05:01:30;;;;;;;14.83;5.27;;;;;;;;;;5081919;28;20481;-83
2022/01/11 05:04:00;;;;;;;20.67;5.87;;;;;;;;;;5072159;28;20873;-84
2022/01/11 05:06:31;;;;;;;19.27;6.10;;;;;;;;;;5074175;28;20813;-84
2022/01/11 05:08:59;;;;;;;19.93;6.93;;;;;;;;;;5073718;28;20498;-84
2022/01/11 05:11:26;;;;;;;14.83;6.00;;;;;;;;;;5069254;28;20495;-84
2022/01/11 05:13:53;;;;;;;19.23;6.37;;;;;;;;;;5071372;28;20483;-84
2022/01/11 05:16:20;;;;;;;13.57;5.23;;;;;;;;;;5073989;28;20523;-84
2022/01/11 05:18:55;;;;;;;11.30;4.77;;;;;;;;;;5072374;28;20517;-84
2022/01/11 05:21:22;;;;;;;16.80;4.57;;;;;;;;;;5072242;28;20487;-84
2022/01/11 05:23:51;;;;;;;12.43;4.60;;;;;;;;;;5070765;28;20483;-84
2022/01/11 05:26:18;;;;;;;14.73;5.40;;;;;;;;;;5070083;28;20448;-84
2022/01/11 05:28:46;;;;;;;15.97;4.97;;;;;;;;;;5070005;28;20458;-83
2022/01/11 05:31:13;;;;;;;12.77;4.93;;;;;;;;;;5069303;28;20563;-84
2022/01/11 05:33:40;;;;;;;16.97;4.77;;;;;;;;;;5083449;28;20468;-83
2022/01/11 05:36:07;;;;;;;12.80;4.90;;;;;;;;;;5091188;28;20461;-83
2022/01/11 05:38:34;;;;;;;13.53;4.80;;;;;;;;;;5085664;28;20670;-84
2022/01/11 05:41:03;;;;;;;12.83;4.70;;;;;;;;;;5070478;28;20464;-84
2022/01/11 05:43:31;;;;;;;18.00;5.27;;;;;;;;;;5070048;28;20530;-83
2022/01/11 05:45:58;;;;;;;15.90;4.33;;;;;;;;;;5069475;28;20437;-83
2022/01/11 05:48:25;;;;;;;11.13;4.60;;;;;;;;;;5070296;28;20504;-83
2022/01/11 05:50:52;;;;;;;15.13;5.43;;;;;;;;;;5071609;28;20460;-83
2022/01/11 05:53:20;;;;;;;20.47;5.33;;;;;;;;;;5080614;28;20510;-84
2022/01/11 05:55:47;;;;;;;22.40;6.20;;;;;;;;;;5073105;28;20487;-84
2022/01/11 05:58:16;;;;;;;14.07;5.07;;;;;;;;;;5072082;28;20456;-84
2022/01/11 06:00:43;;;;;;;13.80;5.00;;;;;;;;;;5066882;28;20980;-84
2022/01/11 06:03:10;;;;;;;19.77;6.93;;;;;;;;;;5072007;28;20987;-84
2022/01/11 06:05:39;;;;;;;25.93;8.07;;;;;;;;;;5071045;28;20555;-84
2022/01/11 06:08:06;;;;;;;30.80;8.60;;;;;;;;;;5077837;28;20460;-84
2022/01/11 06:10:34;;;;;;;24.07;6.87;;;;;;;;;;5081504;28;20461;-84
2022/01/11 06:13:01;;;;;;;24.93;7.10;;;;;;;;;;5081786;28;20498;-85
2022/01/11 06:15:30;;;;;;;35.90;8.53;;;;;;;;;;5088120;28;20432;-85
2022/01/11 06:17:57;;;;;;;36.43;9.33;;;;;;;;;;5087712;28;20464;-84
2022/01/11 06:20:25;;;;;;;30.57;8.63;;;;;;;;;;5085068;28;20484;-84
2022/01/11 06:22:53;;;;;;;20.93;7.50;;;;;;;;;;5085525;28;20490;-84
2022/01/11 06:25:20;;;;;;;31.50;9.63;;;;;;;;;;5083238;28;20445;-83
2022/01/11 06:27:48;;;;;;;22.60;6.67;;;;;;;;;;5084713;28;20460;-83
2022/01/11 06:30:16;;;;;;;16.87;6.37;;;;;;;;;;5083589;28;20449;-84
2022/01/11 06:32:45;;;;;;;18.07;7.10;;;;;;;;;;5083099;28;20508;-84
2022/01/11 06:35:12;;;;;;;16.33;6.87;;;;;;;;;;5086332;28;20459;-84
2022/01/11 06:37:40;;;;;;;13.17;6.00;;;;;;;;;;5087439;28;20448;-83
2022/01/11 06:40:08;;;;;;;14.63;5.83;;;;;;;;;;5084403;28;20468;-84
2022/01/11 06:42:36;;;;;;;15.13;6.30;;;;;;;;;;5085575;28;20488;-84
2022/01/11 06:45:03;;;;;;;15.47;5.53;;;;;;;;;;5085720;28;20582;-83
2022/01/11 06:47:30;;;;;;;14.50;5.73;;;;;;;;;;5078491;28;20452;-84
2022/01/11 06:49:59;;;;;;;13.20;5.37;;;;;;;;;;5071531;28;20580;-84
2022/01/11 06:52:26;;;;;;;16.23;6.23;;;;;;;;;;5076004;28;20484;-86
2022/01/11 06:54:53;;;;;;;18.63;5.53;;;;;;;;;;5079130;28;20971;-84
2022/01/11 06:57:21;;;;;;;16.47;5.43;;;;;;;;;;5073704;28;20468;-85
2022/01/11 06:59:48;;;;;;;14.53;5.37;;;;;;;;;;5075171;28;20441;-85
2022/01/11 07:02:15;;;;;;;14.63;5.73;;;;;;;;;;5077289;28;20521;-85
2022/01/11 07:04:42;;;;;;;14.83;5.77;;;;;;;;;;5076707;28;20468;-85
2022/01/11 07:07:11;;;;;;;14.67;5.83;;;;;;;;;;5079288;28;20937;-85
2022/01/11 07:09:38;;;;;;;22.87;5.83;;;;;;;;;;5075762;28;20477;-85
2022/01/11 07:12:06;;;;;;;13.70;5.13;;;;;;;;;;5078125;28;20480;-83
2022/01/11 07:14:33;;;;;;;16.37;6.17;;;;;;;;;;5087663;28;20448;-84
2022/01/11 07:17:00;;;;;;;22.03;6.37;;;;;;;;;;5088309;28;20440;-85
2022/01/11 07:19:40;;;;;;;19.87;5.97;;;;;;;;;;5074213;28;20463;-85
2022/01/11 07:22:07;;;;;;;16.67;6.13;;;;;;;;;;5066172;28;20779;-85
2022/01/11 07:24:36;;;;;;;14.70;5.87;;;;;;;;;;5069533;28;20460;-84
2022/01/11 07:27:03;;;;;;;15.67;6.03;;;;;;;;;;5066319;28;20533;-84
2022/01/11 07:29:30;;;;;;;18.77;6.30;;;;;;;;;;5070705;28;20461;-84
2022/01/11 07:31:57;;;;;;;25.90;6.40;;;;;;;;;;5069657;28;20488;-84
2022/01/11 07:34:24;;;;;;;22.73;6.03;;;;;;;;;;5066165;28;20453;-84
2022/01/11 07:36:52;;;;;;;12.83;5.80;;;;;;;;;;5072849;28;20460;-84
2022/01/11 07:39:19;;;;;;;23.10;6.53;;;;;;;;;;5069532;28;20461;-84
2022/01/11 07:41:50;;;;;;;19.17;6.30;;;;;;;;;;5071883;28;20484;-84
2022/01/11 07:44:20;;;;;;;21.97;6.43;;;;;;;;;;5073579;28;20483;-85
2022/01/11 07:46:52;;;;;;;15.63;6.47;;;;;;;;;;5068125;28;20465;-84
2022/01/11 07:49:19;;;;;;;17.63;6.73;;;;;;;;;;5073325;28;20460;-85
2022/01/11 07:51:47;;;;;;;16.00;6.77;;;;;;;;;;5068969;28;20480;-85
2022/01/11 07:54:14;;;;;;;30.87;10.67;;;;;;;;;;5075569;28;20484;-86
2022/01/11 07:56:41;;;;;;;29.70;9.47;;;;;;;;;;5074505;28;20460;-84
2022/01/11 07:59:11;;;;;;;23.13;9.37;;;;;;;;;;5072459;28;20444;-84
2022/01/11 08:01:38;;;;;;;25.23;9.10;;;;;;;;;;5072609;28;20464;-84
2022/01/11 08:04:05;;;;;;;31.60;9.87;;;;;;;;;;5075671;28;20432;-84
2022/01/11 08:06:33;;;;;;;25.47;9.47;;;;;;;;;;5076202;28;20506;-85
2022/01/11 08:11:51;;;;;;;29.20;11.27;;;;;;;;;;5079034;28;20809;-85
2022/01/11 08:14:19;;;;;;;28.50;11.00;;;;;;;;;;5079286;28;20963;-86
2022/01/11 08:16:47;;;;;;;28.77;12.07;;;;;;;;;;5078436;28;20492;-85
2022/01/11 08:19:14;;;;;;;31.27;11.17;;;;;;;;;;5076930;28;20460;-85
2022/01/11 08:21:41;;;;;;;28.90;12.53;;;;;;;;;;5078940;28;20531;-84
2022/01/11 08:24:09;;;;;;;34.37;12.43;;;;;;;;;;5078769;28;20536;-85
2022/01/11 08:26:36;;;;;;;34.93;13.97;;;;;;;;;;5081558;28;20483;-86
2022/01/11 08:29:03;;;;;;;34.27;13.27;;;;;;;;;;5080499;28;20552;-85
2022/01/11 08:31:32;;;;;;;31.53;13.27;;;;;;;;;;5084706;28;20448;-85
2022/01/11 08:33:59;;;;;;;30.87;11.43;;;;;;;;;;5086667;28;20522;-85
2022/01/11 08:36:26;;;;;;;30.50;12.63;;;;;;;;;;5090333;28;20519;-85
2022/01/11 08:38:53;;;;;;;32.63;12.67;;;;;;;;;;5074368;28;20516;-85
2022/01/11 08:41:22;;;;;;;31.47;11.70;;;;;;;;;;5074916;28;20892;-85
2022/01/11 08:43:49;;;;;;;31.57;11.30;;;;;;;;;;5072498;28;20461;-86
2022/01/11 08:46:16;;;;;;;32.73;11.27;;;;;;;;;;5074736;28;20467;-85
2022/01/11 08:48:45;;;;;;;29.00;11.80;;;;;;;;;;5074307;28;20482;-85
2022/01/11 08:51:12;;;;;;;29.17;12.40;;;;;;;;;;5081397;28;20456;-83
2022/01/11 08:53:41;;;;;;;33.27;13.30;;;;;;;;;;5093965;28;20464;-85
2022/01/11 08:56:11;;;;;;;49.30;20.67;;;;;;;;;;5093240;28;20470;-86
2022/01/11 08:58:41;;;;;;;58.70;22.70;;;;;;;;;;5076078;28;20825;-85
2022/01/11 09:01:08;;;;;;;40.47;14.80;;;;;;;;;;5075057;28;20456;-86
2022/01/11 09:03:37;;;;;;;35.50;14.83;;;;;;;;;;5072998;28;20486;-86
2022/01/11 09:06:20;;;;;;;27.97;11.00;;;;;;;;;;5072143;28;20516;-85
2022/01/11 09:08:49;;;;;;;32.13;11.90;;;;;;;;;;5076634;28;20495;-84
2022/01/11 09:11:17;;;;;;;30.60;11.77;;;;;;;;;;5072863;28;20479;-85
2022/01/11 09:13:46;;;;;;;33.57;11.57;;;;;;;;;;5074483;28;20484;-84
2022/01/11 09:16:15;;;;;;;31.27;11.73;;;;;;;;;;5075547;28;20615;-85
2022/01/11 09:18:44;;;;;;;35.07;12.97;;;;;;;;;;5068600;28;20460;-84
2022/01/11 09:21:11;;;;;;;35.20;12.87;;;;;;;;;;5069473;28;20530;-83
2022/01/11 09:23:38;;;;;;;33.10;14.00;;;;;;;;;;5073501;28;20524;-84
2022/01/11 09:26:10;;;;;;;42.17;15.37;;;;;;;;;;5070191;28;20460;-84
2022/01/11 09:28:39;;;;;;;35.43;14.27;;;;;;;;;;5073121;28;20531;-85
2022/01/11 09:31:06;;;;;;;35.60;14.00;;;;;;;;;;5069739;28;20487;-83
2022/01/11 09:33:34;;;;;;;40.10;14.17;;;;;;;;;;5061337;28;20997;-84
2022/01/11 09:36:02;;;;;;;31.27;13.53;;;;;;;;;;5068601;28;20471;-84
2022/01/11 09:38:30;;;;;;;35.43;13.70;;;;;;;;;;5067538;28;20987;-85
2022/01/11 09:40:59;;;;;;;42.40;17.03;;;;;;;;;;5065195;28;20485;-84
2022/01/11 09:43:29;;;;;;;42.73;14.93;;;;;;;;;;5069145;28;20567;-84
2022/01/11 09:45:56;;;;;;;40.60;16.00;;;;;;;;;;5070420;28;20453;-84
2022/01/11 09:48:25;;;;;;;38.13;15.17;;;;;;;;;;5068011;28;20887;-84
2022/01/11 09:50:53;;;;;;;32.87;14.33;;;;;;;;;;5066261;28;20476;-84
2022/01/11 09:53:20;;;;;;;40.57;15.47;;;;;;;;;;5067048;28;20850;-84
2022/01/11 09:55:48;;;;;;;33.13;14.97;;;;;;;;;;5069018;28;20452;-86
2022/01/11 09:58:16;;;;;;;36.17;14.23;;;;;;;;;;5073938;28;20528;-84
2022/01/11 10:00:45;;;;;;;33.67;14.37;;;;;;;;;;5074830;28;20499;-84
2022/01/11 10:03:15;;;;;;;34.87;14.13;;;;;;;;;;5074323;28;20480;-85
2022/01/11 10:05:42;;;;;;;36.90;13.50;;;;;;;;;;5078387;28;20466;-86
2022/01/11 10:08:21;;;;;;;32.60;13.33;;;;;;;;;;5077943;28;20536;-85
2022/01/11 10:10:52;;;;;;;34.70;12.77;;;;;;;;;;5075374;28;20463;-85
2022/01/11 10:13:29;;;;;;;26.57;13.00;;;;;;;;;;5076141;28;20487;-86
2022/01/11 10:15:58;;;;;;;32.67;12.97;;;;;;;;;;5074722;28;20460;-85
2022/01/11 10:18:36;;;;;;;32.33;13.23;;;;;;;;;;5076316;28;20467;-84
2022/01/11 10:21:03;;;;;;;29.00;12.30;;;;;;;;;;5077319;28;20198;-85
2022/01/11 10:23:33;;;;;;;33.30;13.77;;;;;;;;;;5066162;22;20864;-81
2022/01/11 10:26:01;;;;;;;34.30;14.13;;;;;;;;;;5044606;28;20526;-82
2022/01/11 10:28:34;;;;;;;32.53;14.43;;;;;;;;;;5047329;28;20887;-82
2022/01/11 10:31:03;;;;;;;36.17;14.40;;;;;;;;;;5044831;28;20456;-82
2022/01/11 10:33:30;;;;;;;36.87;14.37;;;;;;;;;;5044002;28;20227;-82
2022/01/11 10:35:58;;;;;;;37.90;14.87;;;;;;;;;;5042162;28;20561;-82
2022/01/11 10:38:26;;;;;;;33.83;13.93;;;;;;;;;;5044164;28;20911;-81
2022/01/11 10:40:54;;;;;;;34.50;13.93;;;;;;;;;;5041768;28;20462;-81
2022/01/11 10:43:23;;;;;;;38.47;14.13;;;;;;;;;;5039097;28;20525;-80
2022/01/11 10:45:51;;;;;;;32.97;14.90;;;;;;;;;;5037066;28;20508;-81
2022/01/11 10:48:22;;;;;;;35.00;13.03;;;;;;;;;;5050062;28;20306;-81
2022/01/11 10:50:50;;;;;;;35.13;13.57;;;;;;;;;;5038026;28;20317;-80
2022/01/11 10:53:18;;;;;;;27.70;11.83;;;;;;;;;;5037307;28;20531;-81
2022/01/11 10:55:48;;;;;;;32.60;13.40;;;;;;;;;;5042371;28;20465;-81
2022/01/11 10:58:16;;;;;;;34.63;14.90;;;;;;;;;;5047461;28;21019;-80
2022/01/11 11:00:43;;;;;;;30.23;14.27;;;;;;;;;;5045729;28;20522;-81
2022/01/11 11:03:13;;;;;;;35.23;13.00;;;;;;;;;;5043386;28;20456;-80
2022/01/11 11:05:46;;;;;;;30.17;12.20;;;;;;;;;;5047823;28;20537;-80
2022/01/11 11:08:14;;;;;;;28.00;11.90;;;;;;;;;;5047366;28;20473;-81
2022/01/11 11:10:43;;;;;;;28.67;12.00;;;;;;;;;;5048951;28;20503;-81
2022/01/11 11:13:11;;;;;;;27.60;11.77;;;;;;;;;;5044298;28;20694;-81
2022/01/11 11:15:40;;;;;;;30.97;11.10;;;;;;;;;;5053048;28;20497;-81
2022/01/11 11:18:08;;;;;;;27.07;11.00;;;;;;;;;;5046878;28;20732;-81
2022/01/11 11:20:37;;;;;;;26.90;11.30;;;;;;;;;;5049281;28;20447;-81
2022/01/11 11:23:06;;;;;;;39.50;13.83;;;;;;;;;;5043762;28;20453;-81
2022/01/11 11:25:33;;;;;;;28.63;13.20;;;;;;;;;;5047225;28;20264;-81
2022/01/11 11:28:01;;;;;;;29.93;13.83;;;;;;;;;;5049003;28;20210;-81
2022/01/11 11:30:28;;;;;;;31.00;12.27;;;;;;;;;;5051947;28;20297;-80
2022/01/11 11:32:57;;;;;;;32.80;11.40;;;;;;;;;;5042086;28;20798;-80
2022/01/11 11:35:24;;;;;;;30.27;11.83;;;;;;;;;;5049125;28;20537;-80
2022/01/11 11:37:54;;;;;;;29.93;11.77;;;;;;;;;;5044375;28;20655;-81
2022/01/11 11:40:25;;;;;;;23.80;11.43;;;;;;;;;;5049289;28;20265;-81
2022/01/11 11:42:53;;;;;;;24.87;9.80;;;;;;;;;;5048329;28;20454;-81
2022/01/11 11:45:21;;;;;;;26.53;10.73;;;;;;;;;;5043953;28;20293;-80
2022/01/11 11:47:50;;;;;;;27.87;11.27;;;;;;;;;;5037747;28;20505;-80
2022/01/11 11:50:19;;;;;;;25.00;10.43;;;;;;;;;;5036921;28;20292;-81
2022/01/11 11:52:47;;;;;;;27.97;12.70;;;;;;;;;;5039311;28;20706;-81
2022/01/11 11:55:19;;;;;;;21.33;9.37;;;;;;;;;;5049935;28;20227;-81
2022/01/11 11:57:48;;;;;;;26.20;8.97;;;;;;;;;;5050907;28;20207;-81
2022/01/11 12:00:18;;;;;;;27.80;9.53;;;;;;;;;;5044757;28;20210;-80
2022/01/11 12:02:46;;;;;;;20.77;8.87;;;;;;;;;;5050960;28;20262;-80
2022/01/11 12:05:15;;;;;;;22.37;8.40;;;;;;;;;;5045826;28;20289;-80
2022/01/11 12:07:44;;;;;;;23.63;9.73;;;;;;;;;;5045872;28;20617;-81
2022/01/11 12:10:16;;;;;;;22.23;9.33;;;;;;;;;;5046187;28;20510;-80
2022/01/11 12:12:44;;;;;;;31.30;11.50;;;;;;;;;;5044228;28;20214;-79
2022/01/11 12:15:31;;;;;;;32.87;11.87;;;;;;;;;;5046177;28;20760;-79
2022/01/11 12:18:18;;;;;;;32.57;13.90;;;;;;;;;;5045044;28;20203;-81
2022/01/11 12:20:48;;;;;;;32.60;13.10;;;;;;;;;;5052329;28;20206;-79
2022/01/11 12:23:20;;;;;;;29.30;10.90;;;;;;;;;;5049252;28;20282;-79
2022/01/11 12:25:51;;;;;;;30.63;11.03;;;;;;;;;;5052630;28;20227;-79
2022/01/11 12:28:19;;;;;;;30.90;11.60;;;;;;;;;;5045660;28;20307;-79
2022/01/11 12:30:46;;;;;;;29.57;10.93;;;;;;;;;;5048128;28;20651;-78
2022/01/11 12:33:15;;;;;;;26.97;11.43;;;;;;;;;;5041753;28;20206;-79
2022/01/11 12:35:54;;;;;;;27.83;10.97;;;;;;;;;;5049157;28;20226;-79
2022/01/11 12:38:21;;;;;;;25.57;10.87;;;;;;;;;;5046723;28;20286;-78
2022/01/11 12:40:49;;;;;;;31.30;10.50;;;;;;;;;;5048148;28;20211;-79
2022/01/11 12:43:19;;;;;;;26.73;10.07;;;;;;;;;;5045470;28;20295;-79
2022/01/11 12:46:00;;;;;;;31.30;11.87;;;;;;;;;;5046947;28;20227;-79
2022/01/11 12:48:47;;;;;;;32.23;11.03;;;;;;;;;;5048274;28;20248;-79
2022/01/11 12:51:24;;;;;;;23.87;10.50;;;;;;;;;;5052315;28;20227;-79
2022/01/11 12:53:51;;;;;;;36.47;12.83;;;;;;;;;;5053107;28;20222;-79
2022/01/11 12:56:19;;;;;;;49.97;24.27;;;;;;;;;;5045716;28;20313;-79
2022/01/11 12:58:47;;;;;;;30.00;13.53;;;;;;;;;;5046662;28;20282;-79
2022/01/11 13:01:18;;;;;;;29.20;12.23;;;;;;;;;;5046273;28;20202;-78
2022/01/11 13:03:52;;;;;;;26.17;12.63;;;;;;;;;;5044261;28;20630;-79
2022/01/11 13:06:19;;;;;;;28.07;11.50;;;;;;;;;;5052914;28;20226;-79
2022/01/11 13:08:52;;;;;;;23.13;8.87;;;;;;;;;;5053147;28;20317;-80
2022/01/11 13:11:20;;;;;;;24.17;10.07;;;;;;;;;;5048468;28;20200;-78
2022/01/11 13:13:54;;;;;;;22.07;9.43;;;;;;;;;;5050279;28;20223;-78
2022/01/11 13:16:22;;;;;;;26.63;11.73;;;;;;;;;;5056182;28;20226;-79
2022/01/11 13:18:50;;;;;;;26.30;10.20;;;;;;;;;;5057631;28;20238;-80
2022/01/11 13:21:21;;;;;;;21.67;10.30;;;;;;;;;;5060286;28;20227;-81
2022/01/11 13:24:00;;;;;;;24.33;11.20;;;;;;;;;;5048906;28;20248;-79
2022/01/11 13:26:30;;;;;;;26.80;9.40;;;;;;;;;;5049911;28;20723;-80
2022/01/11 13:28:59;;;;;;;22.50;10.07;;;;;;;;;;5044369;28;20237;-79
2022/01/11 13:31:26;;;;;;;26.80;8.47;;;;;;;;;;5049450;28;20214;-81
2022/01/11 13:33:57;;;;;;;25.97;9.47;;;;;;;;;;5048708;28;20688;-79
2022/01/11 13:36:27;;;;;;;24.23;9.57;;;;;;;;;;5052982;28;20230;-81
2022/01/11 13:38:57;;;;;;;30.70;9.53;;;;;;;;;;5049313;28;20203;-79
2022/01/11 13:41:28;;;;;;;20.67;9.50;;;;;;;;;;5051833;28;20207;-80
2022/01/11 13:43:57;;;;;;;30.90;9.37;;;;;;;;;;5061959;28;20211;-78
2022/01/11 13:46:25;;;;;;;22.37;8.90;;;;;;;;;;5057451;28;20219;-79
2022/01/11 13:48:53;;;;;;;22.03;8.53;;;;;;;;;;5048910;28;20220;-78
2022/01/11 13:51:24;;;;;;;15.27;6.67;;;;;;;;;;5051859;28;20211;-80
2022/01/11 13:53:58;;;;;;;21.37;7.40;;;;;;;;;;5044963;28;20751;-81
2022/01/11 13:56:30;;;;;;;18.97;8.17;;;;;;;;;;5043185;28;20233;-81
2022/01/11 13:58:58;;;;;;;19.30;9.57;;;;;;;;;;5047585;28;20510;-80
2022/01/11 14:01:26;;;;;;;14.83;7.30;;;;;;;;;;5048174;28;20262;-79
2022/01/11 14:04:04;;;;;;;23.43;12.03;;;;;;;;;;5041707;28;20207;-79
2022/01/11 14:06:40;;;;;;;18.77;9.07;;;;;;;;;;5041923;28;20313;-78
2022/01/11 14:09:10;;;;;;;15.50;6.93;;;;;;;;;;5046365;28;20203;-80
2022/01/11 14:11:51;;;;;;;21.50;7.87;;;;;;;;;;5047140;28;20645;-80
2022/01/11 14:14:23;;;;;;;39.73;15.27;;;;;;;;;;5039707;28;20689;-80
2022/01/11 14:16:51;;;;;;;24.63;9.57;;;;;;;;;;5044054;28;20234;-79
2022/01/11 14:19:19;;;;;;;47.97;16.77;;;;;;;;;;5041472;28;20727;-78
2022/01/11 14:21:50;;;;;;;24.93;8.90;;;;;;;;;;5045012;28;20210;-81
2022/01/11 14:24:18;;;;;;;22.27;8.20;;;;;;;;;;5049577;28;20219;-80
2022/01/11 14:26:47;;;;;;;15.20;7.13;;;;;;;;;;5045119;28;20266;-80
2022/01/11 14:29:18;;;;;;;17.07;7.77;;;;;;;;;;5047274;28;20245;-80
2022/01/11 14:31:45;;;;;;;17.80;6.90;;;;;;;;;;5046055;28;20725;-81
2022/01/11 14:34:15;;;;;;;23.30;9.70;;;;;;;;;;5048598;28;20229;-80
2022/01/11 14:36:44;;;;;;;24.33;9.47;;;;;;;;;;5046580;28;20231;-79
2022/01/11 14:39:13;;;;;;;14.00;5.50;;;;;;;;;;5046243;28;20218;-79
2022/01/11 14:41:42;;;;;;;16.43;6.00;;;;;;;;;;5044658;28;20767;-81